»·PEaware :: N234AQ KABQ-KPHX

N234AQ :: KABQ-KPHX

FLIGHT INFORMATION

Flight Status: Arrived
Operator: Privately registered:
United States
More flights under this callsign
Pilot: Paul D. (10090)
Aircraft: CESSNA 550 CITATION 2/S2/BRAVO
(C550)
More flights by this aircraft type
Origin: KABQ Albuquerque Intl Sunport
United States
Destination: KPHX Phoenix Sky Harbor Intl
United States
More flights between these airports :: More routes between these airports
Route: +ABQ2 SJN J18 PXR / PAYSO EAGUL6
File this flight plan on PilotEdge
Remarks:
Altitude:
(Current/Filed)
280ft
Speed:
(Current/Filed)
400kts
Departed: 18-Sep-17 04:00 PM
Arrived: 18-Sep-17 05:09 PM
Distance/Time
Traveled:
285nm/1:09
Distance/Time
To Go:
Arrived

Flight Plot

Page will automatically refresh every two minutes.

Flight plan parsing failed; only flown route is shown


Map Options




Map Legend


Flown Route
Filed Route
Departure Airport
Arrival Airport
Navaid (VOR, NDB)
Fix

Horizontal Profiles

Position Reports

Time Latitude Longitude Heading Altitude Ground
Speed
18-Sep-17 15:18 35.035878 -106.617771 133 5359ft 0kts
18-Sep-17 15:19 35.035878 -106.617771 133 5359ft 0kts
18-Sep-17 15:20 35.035878 -106.617771 133 5359ft 0kts
18-Sep-17 15:21 35.035878 -106.617771 133 5359ft 0kts
18-Sep-17 15:22 35.035878 -106.617771 133 5359ft 0kts
18-Sep-17 15:23 35.035878 -106.617771 133 5359ft 0kts
18-Sep-17 15:24 35.035878 -106.617771 133 5359ft 0kts
18-Sep-17 15:25 35.035878 -106.617771 133 5359ft 0kts
18-Sep-17 15:26 35.035878 -106.617771 133 5359ft 0kts
18-Sep-17 15:27 35.035878 -106.617771 133 5359ft 0kts
18-Sep-17 15:28 35.035878 -106.617771 133 5359ft 0kts
18-Sep-17 15:29 35.035878 -106.617771 133 5359ft 0kts
18-Sep-17 15:30 35.035878 -106.617771 133 5359ft 0kts
18-Sep-17 15:31 35.035878 -106.617771 133 5359ft 0kts
18-Sep-17 15:32 35.035878 -106.617771 133 5359ft 0kts
18-Sep-17 15:33 35.035878 -106.617771 133 5359ft 0kts
18-Sep-17 15:34 35.035878 -106.617771 133 5359ft 0kts
18-Sep-17 15:35 35.035878 -106.617771 133 5359ft 0kts
18-Sep-17 15:36 35.035878 -106.617771 133 5359ft 0kts
18-Sep-17 15:37 35.035878 -106.617771 133 5359ft 0kts
18-Sep-17 15:38 35.035878 -106.617771 133 5359ft 0kts
18-Sep-17 15:39 35.035878 -106.617771 133 5359ft 0kts
18-Sep-17 15:40 35.035878 -106.617771 133 5359ft 0kts
18-Sep-17 15:41 35.035878 -106.617771 133 5359ft 0kts
18-Sep-17 15:42 35.035878 -106.617771 133 5359ft 0kts
18-Sep-17 15:43 35.035878 -106.617771 133 5359ft 0kts
18-Sep-17 15:44 35.035878 -106.617771 133 5359ft 0kts
18-Sep-17 15:51 35.035879 -106.617770 133 5359ft 0kts
18-Sep-17 15:52 35.035877 -106.617768 133 5359ft 0kts
18-Sep-17 15:53 35.035876 -106.617767 133 5359ft 0kts
18-Sep-17 15:54 35.035875 -106.617765 133 5359ft 0kts
18-Sep-17 15:55 35.035874 -106.617764 133 5359ft 0kts
18-Sep-17 15:56 35.035863 -106.617749 133 5359ft 3kts
18-Sep-17 15:57 35.037454 -106.614368 31 5359ft 15kts
18-Sep-17 15:58 35.042142 -106.613786 14 5359ft 20kts
18-Sep-17 15:59 35.042461 -106.612760 88 5359ft 0kts
18-Sep-17 16:00 35.042418 -106.610107 91 5359ft 32kts
18-Sep-17 16:01 35.042392 -106.607328 88 5359ft 22kts
18-Sep-17 16:02 35.042424 -106.607979 97 5359ft 0kts
18-Sep-17 16:03 35.041511 -106.607373 223 5359ft 0kts
18-Sep-17 16:04 35.034622 -106.615549 225 5362ft 135kts
18-Sep-17 16:05 35.007940 -106.669727 248 8048ft 241kts
18-Sep-17 16:06 34.987336 -106.758795 273 10905ft 252kts
18-Sep-17 16:07 34.966420 -106.840739 253 13731ft 269kts
18-Sep-17 16:08 34.945521 -106.929707 255 16532ft 274kts
18-Sep-17 16:09 34.925659 -107.017823 255 19316ft 264kts
18-Sep-17 16:10 34.906714 -107.101563 255 22099ft 246kts
18-Sep-17 16:11 34.889236 -107.178610 255 24607ft 232kts
18-Sep-17 16:12 34.871893 -107.255090 255 26420ft 241kts
18-Sep-17 16:13 34.866092 -107.280655 255 26883ft 251kts
18-Sep-17 16:14 34.846413 -107.366825 255 27952ft 288kts
18-Sep-17 16:15 34.822313 -107.471905 255 28006ft 353kts
18-Sep-17 16:16 34.799952 -107.593772 259 28001ft 380kts
18-Sep-17 16:17 34.781938 -107.721828 262 28000ft 387kts
18-Sep-17 16:18 34.766090 -107.852146 261 28000ft 391kts
18-Sep-17 16:19 34.749349 -107.983120 261 28000ft 393kts
18-Sep-17 16:20 34.732424 -108.114374 261 28000ft 393kts
18-Sep-17 16:21 34.715297 -108.246137 261 28000ft 394kts
18-Sep-17 16:22 34.698084 -108.377430 261 28000ft 394kts
18-Sep-17 16:23 34.680673 -108.509085 261 28000ft 394kts
18-Sep-17 16:24 34.663181 -108.640239 261 28000ft 394kts
18-Sep-17 16:25 34.645541 -108.771372 261 28000ft 394kts
18-Sep-17 16:26 34.627694 -108.902989 260 28000ft 394kts
18-Sep-17 16:27 34.609764 -109.034050 260 28000ft 394kts
18-Sep-17 16:28 34.591690 -109.165097 260 28000ft 394kts
18-Sep-17 16:29 34.573414 -109.296531 260 28000ft 394kts
18-Sep-17 16:30 34.555064 -109.427434 260 28000ft 394kts
18-Sep-17 16:31 34.536562 -109.558356 260 28000ft 394kts
18-Sep-17 16:32 34.517866 -109.689594 260 28000ft 394kts
18-Sep-17 16:33 34.499082 -109.820406 260 28000ft 394kts
18-Sep-17 16:34 34.480124 -109.950889 260 27484ft 375kts
18-Sep-17 16:35 34.462621 -110.072598 260 26384ft 363kts
18-Sep-17 16:36 34.445109 -110.191377 260 24965ft 358kts
18-Sep-17 16:37 34.427650 -110.308438 260 24005ft 321kts
18-Sep-17 16:38 34.410641 -110.424509 260 24000ft 355kts
18-Sep-17 16:39 34.393261 -110.541355 260 23999ft 352kts
18-Sep-17 16:40 34.375664 -110.658055 260 24000ft 351kts
18-Sep-17 16:41 34.357961 -110.771586 256 23783ft 324kts
18-Sep-17 16:42 34.304504 -110.859423 229 21980ft 340kts
18-Sep-17 16:43 34.241555 -110.941086 229 20176ft 324kts
18-Sep-17 16:44 34.179977 -111.020850 229 19047ft 330kts
18-Sep-17 16:45 34.117794 -111.100963 229 18999ft 324kts
18-Sep-17 16:46 34.056116 -111.179848 230 17552ft 314kts
18-Sep-17 16:47 33.995418 -111.257120 230 15381ft 299kts
18-Sep-17 16:48 33.937182 -111.332242 230 13477ft 311kts
18-Sep-17 16:49 33.876298 -111.407843 220 11581ft 305kts
18-Sep-17 16:50 33.811029 -111.463896 215 9996ft 296kts
18-Sep-17 16:51 33.745342 -111.520586 217 9065ft 278kts
18-Sep-17 16:52 33.684634 -111.572825 216 8520ft 256kts
18-Sep-17 16:53 33.631560 -111.618068 217 8093ft 231kts
18-Sep-17 16:54 33.578556 -111.662313 217 6589ft 232kts
18-Sep-17 16:55 33.526223 -111.706390 219 5550ft 235kts
18-Sep-17 16:56 33.471128 -111.752004 210 4604ft 236kts
18-Sep-17 16:57 33.415954 -111.792147 209 4498ft 228kts
18-Sep-17 16:58 33.381369 -111.757114 56 4516ft 213kts
18-Sep-17 16:59 33.428548 -111.741530 308 4309ft 229kts
18-Sep-17 17:00 33.449210 -111.806941 290 3983ft 166kts
18-Sep-17 17:01 33.416299 -111.828201 171 4011ft 179kts
18-Sep-17 17:02 33.364077 -111.819324 170 4003ft 195kts
18-Sep-17 17:03 33.310094 -111.807994 144 3979ft 197kts
18-Sep-17 17:04 33.302572 -111.750552 80 4001ft 181kts
18-Sep-17 17:05 33.339110 -111.727713 1 4003ft 167kts
18-Sep-17 17:06 33.386375 -111.726516 1 4000ft 172kts
18-Sep-17 17:07 33.421700 -111.756542 294 4006ft 183kts
18-Sep-17 17:08 33.431094 -111.816768 273 3993ft 177kts
18-Sep-17 17:09 33.428198 -111.865383 275 3371ft 130kts
18-Sep-17 17:10 33.428677 -111.907727 278 2577ft 126kts
18-Sep-17 17:11 33.428781 -111.949299 276 2044ft 121kts
18-Sep-17 17:12 33.428612 -111.991130 276 1358ft 126kts
18-Sep-17 17:13 33.428779 -112.014610 270 1139ft 22kts
18-Sep-17 17:14 33.426692 -112.016699 223 1139ft 0kts

Navigation Log

Ident Type
Flight plan parsing failed, navigation log unavailable